Albion, Idaho
Current Conditions -  °F | °C
As of 4:53 PM on Sunday 23 Nov 2014 (Local Time) from KBYI Reporting Station
Few Clouds Few Clouds  
Wind Chill: 27°   Ceiling: Unl
Heat Index: 36°   Visibility: 10mi
Dew Point: 26°   Wind: 15mph
Humidity: 67%   Direction: 250°WSW
Pressure: 30.21"   Gusts: NA
Location:  42.41°N, 113.58°W
Report Text: KBYI 232353Z AUTO 25013KT 10SM FEW095 02/M03 A3021 RMK AO2 PK WND 26027/2259 RAE31 SLP243 P0000 60000 T00221033 10050 20022 55005
Loading
Personal Weather Stations






























Interactive Weather Map New forecast layout! Learn more

10-Day Weather Forecast

Advertisements
Track Severe Weather on mobile